sensor_id;sensor_type;location;lat;lon;timestamp;P1;durP1;ratioP1;P2;durP2;ratioP2
44987;SDS011;35735;52.226;21.254;2023-07-13T00:03:32;13.75;;;12.35;;
44987;SDS011;35735;52.226;21.254;2023-07-13T00:08:32;14.85;;;12.37;;
44987;SDS011;35735;52.226;21.254;2023-07-13T00:13:33;13.62;;;12.32;;
44987;SDS011;35735;52.226;21.254;2023-07-13T00:18:34;13.35;;;12.02;;
44987;SDS011;35735;52.226;21.254;2023-07-13T00:23:35;13.65;;;11.23;;
44987;SDS011;35735;52.226;21.254;2023-07-13T00:28:38;12.93;;;11.57;;
44987;SDS011;35735;52.226;21.254;2023-07-13T00:33:40;13.57;;;12.23;;
44987;SDS011;35735;52.226;21.254;2023-07-13T00:38:41;12.37;;;11.10;;
44987;SDS011;35735;52.226;21.254;2023-07-13T00:43:42;13.68;;;11.10;;
44987;SDS011;35735;52.226;21.254;2023-07-13T00:48:43;12.77;;;11.43;;
44987;SDS011;35735;52.226;21.254;2023-07-13T00:53:47;12.55;;;11.25;;
44987;SDS011;35735;52.226;21.254;2023-07-13T00:58:47;12.37;;;11.10;;
44987;SDS011;35735;52.226;21.254;2023-07-13T01:03:48;12.43;;;11.15;;
44987;SDS011;35735;52.226;21.254;2023-07-13T01:08:49;12.43;;;11.12;;
44987;SDS011;35735;52.226;21.254;2023-07-13T01:13:50;11.63;;;10.43;;
44987;SDS011;35735;52.226;21.254;2023-07-13T01:18:50;12.18;;;10.98;;
44987;SDS011;35735;52.226;21.254;2023-07-13T01:23:51;12.50;;;11.30;;
44987;SDS011;35735;52.226;21.254;2023-07-13T01:28:52;11.73;;;10.52;;
44987;SDS011;35735;52.226;21.254;2023-07-13T01:33:52;14.77;;;10.88;;
44987;SDS011;35735;52.226;21.254;2023-07-13T01:38:54;11.38;;;10.13;;
44987;SDS011;35735;52.226;21.254;2023-07-13T01:43:54;12.85;;;10.48;;
44987;SDS011;35735;52.226;21.254;2023-07-13T01:48:55;12.10;;;10.90;;
44987;SDS011;35735;52.226;21.254;2023-07-13T01:53:56;11.52;;;10.32;;
44987;SDS011;35735;52.226;21.254;2023-07-13T01:58:56;13.52;;;11.30;;
44987;SDS011;35735;52.226;21.254;2023-07-13T02:03:57;12.43;;;11.12;;
44987;SDS011;35735;52.226;21.254;2023-07-13T02:08:57;12.45;;;11.15;;
44987;SDS011;35735;52.226;21.254;2023-07-13T02:13:59;12.00;;;10.57;;
44987;SDS011;35735;52.226;21.254;2023-07-13T02:19:00;11.20;;;10.07;;
44987;SDS011;35735;52.226;21.254;2023-07-13T02:24:01;11.43;;;10.25;;
44987;SDS011;35735;52.226;21.254;2023-07-13T02:29:01;11.25;;;10.15;;
44987;SDS011;35735;52.226;21.254;2023-07-13T02:34:02;10.82;;;9.80;;
44987;SDS011;35735;52.226;21.254;2023-07-13T02:39:04;11.73;;;10.27;;
44987;SDS011;35735;52.226;21.254;2023-07-13T02:44:06;12.13;;;9.63;;
44987;SDS011;35735;52.226;21.254;2023-07-13T02:49:07;11.02;;;9.73;;
44987;SDS011;35735;52.226;21.254;2023-07-13T02:54:08;10.68;;;9.48;;
44987;SDS011;35735;52.226;21.254;2023-07-13T02:59:09;10.45;;;9.35;;
44987;SDS011;35735;52.226;21.254;2023-07-13T03:04:10;11.05;;;9.90;;
44987;SDS011;35735;52.226;21.254;2023-07-13T03:09:11;10.80;;;9.80;;
44987;SDS011;35735;52.226;21.254;2023-07-13T03:14:11;10.50;;;9.40;;
44987;SDS011;35735;52.226;21.254;2023-07-13T03:19:12;10.40;;;9.40;;
44987;SDS011;35735;52.226;21.254;2023-07-13T03:24:12;11.02;;;9.93;;
44987;SDS011;35735;52.226;21.254;2023-07-13T03:29:13;12.23;;;10.50;;
44987;SDS011;35735;52.226;21.254;2023-07-13T03:34:13;11.93;;;10.13;;
44987;SDS011;35735;52.226;21.254;2023-07-13T03:39:14;10.80;;;9.70;;
44987;SDS011;35735;52.226;21.254;2023-07-13T03:44:17;10.10;;;9.10;;
44987;SDS011;35735;52.226;21.254;2023-07-13T03:49:19;11.93;;;10.45;;
44987;SDS011;35735;52.226;21.254;2023-07-13T03:54:19;12.27;;;11.18;;
44987;SDS011;35735;52.226;21.254;2023-07-13T03:59:20;12.98;;;11.60;;
44987;SDS011;35735;52.226;21.254;2023-07-13T04:04:20;12.77;;;11.48;;
44987;SDS011;35735;52.226;21.254;2023-07-13T04:09:21;13.27;;;11.73;;
44987;SDS011;35735;52.226;21.254;2023-07-13T04:14:21;16.27;;;12.43;;
44987;SDS011;35735;52.226;21.254;2023-07-13T04:19:23;13.32;;;11.68;;
44987;SDS011;35735;52.226;21.254;2023-07-13T04:24:23;12.40;;;11.18;;
44987;SDS011;35735;52.226;21.254;2023-07-13T04:29:24;13.68;;;11.90;;
44987;SDS011;35735;52.226;21.254;2023-07-13T04:34:24;15.07;;;11.15;;
44987;SDS011;35735;52.226;21.254;2023-07-13T04:39:25;12.43;;;10.82;;
44987;SDS011;35735;52.226;21.254;2023-07-13T04:44:25;15.10;;;11.77;;
44987;SDS011;35735;52.226;21.254;2023-07-13T04:49:26;12.15;;;10.88;;
44987;SDS011;35735;52.226;21.254;2023-07-13T04:54:27;13.40;;;12.10;;
44987;SDS011;35735;52.226;21.254;2023-07-13T04:59:27;16.40;;;11.23;;
44987;SDS011;35735;52.226;21.254;2023-07-13T05:04:28;14.27;;;11.93;;
44987;SDS011;35735;52.226;21.254;2023-07-13T05:09:28;13.98;;;11.63;;
44987;SDS011;35735;52.226;21.254;2023-07-13T05:14:29;13.75;;;11.27;;
44987;SDS011;35735;52.226;21.254;2023-07-13T05:19:29;11.85;;;10.48;;
44987;SDS011;35735;52.226;21.254;2023-07-13T05:24:30;15.68;;;11.82;;
44987;SDS011;35735;52.226;21.254;2023-07-13T05:29:30;14.00;;;12.52;;
44987;SDS011;35735;52.226;21.254;2023-07-13T05:34:31;13.32;;;11.90;;
44987;SDS011;35735;52.226;21.254;2023-07-13T05:39:32;17.37;;;12.82;;
44987;SDS011;35735;52.226;21.254;2023-07-13T05:44:32;12.77;;;11.52;;
44987;SDS011;35735;52.226;21.254;2023-07-13T05:49:33;13.57;;;12.20;;
44987;SDS011;35735;52.226;21.254;2023-07-13T05:54:33;15.45;;;12.63;;
44987;SDS011;35735;52.226;21.254;2023-07-13T05:59:35;16.30;;;12.40;;
44987;SDS011;35735;52.226;21.254;2023-07-13T06:04:35;13.55;;;11.45;;
44987;SDS011;35735;52.226;21.254;2023-07-13T06:09:36;13.52;;;11.20;;
44987;SDS011;35735;52.226;21.254;2023-07-13T06:14:36;11.95;;;10.48;;
44987;SDS011;35735;52.226;21.254;2023-07-13T06:19:37;13.40;;;10.05;;
44987;SDS011;35735;52.226;21.254;2023-07-13T06:24:38;11.93;;;10.60;;
44987;SDS011;35735;52.226;21.254;2023-07-13T06:29:38;11.80;;;9.38;;
44987;SDS011;35735;52.226;21.254;2023-07-13T06:34:39;14.13;;;9.55;;
44987;SDS011;35735;52.226;21.254;2023-07-13T06:39:39;10.55;;;9.02;;
44987;SDS011;35735;52.226;21.254;2023-07-13T06:44:40;13.52;;;8.43;;
44987;SDS011;35735;52.226;21.254;2023-07-13T06:49:41;7.12;;;6.28;;
44987;SDS011;35735;52.226;21.254;2023-07-13T06:54:41;8.80;;;6.10;;
44987;SDS011;35735;52.226;21.254;2023-07-13T06:59:42;8.18;;;5.90;;
44987;SDS011;35735;52.226;21.254;2023-07-13T07:04:42;7.12;;;5.95;;
44987;SDS011;35735;52.226;21.254;2023-07-13T07:09:43;7.35;;;6.37;;
44987;SDS011;35735;52.226;21.254;2023-07-13T07:14:43;5.37;;;4.68;;
44987;SDS011;35735;52.226;21.254;2023-07-13T07:19:44;6.50;;;5.37;;
44987;SDS011;35735;52.226;21.254;2023-07-13T07:24:45;7.28;;;5.47;;
44987;SDS011;35735;52.226;21.254;2023-07-13T07:29:45;5.85;;;5.20;;
44987;SDS011;35735;52.226;21.254;2023-07-13T07:34:46;6.00;;;4.45;;
44987;SDS011;35735;52.226;21.254;2023-07-13T07:39:47;6.70;;;4.12;;
44987;SDS011;35735;52.226;21.254;2023-07-13T07:44:47;5.22;;;4.80;;
44987;SDS011;35735;52.226;21.254;2023-07-13T07:49:48;7.80;;;5.37;;
44987;SDS011;35735;52.226;21.254;2023-07-13T07:54:48;7.15;;;5.43;;
44987;SDS011;35735;52.226;21.254;2023-07-13T07:59:49;8.23;;;4.80;;
44987;SDS011;35735;52.226;21.254;2023-07-13T08:04:49;5.62;;;5.03;;
44987;SDS011;35735;52.226;21.254;2023-07-13T08:09:53;5.95;;;5.00;;
44987;SDS011;35735;52.226;21.254;2023-07-13T08:14:53;5.93;;;5.32;;
44987;SDS011;35735;52.226;21.254;2023-07-13T08:19:54;5.82;;;5.05;;
44987;SDS011;35735;52.226;21.254;2023-07-13T08:24:55;7.20;;;6.00;;
44987;SDS011;35735;52.226;21.254;2023-07-13T08:29:55;5.82;;;5.25;;
44987;SDS011;35735;52.226;21.254;2023-07-13T08:34:56;5.68;;;5.18;;
44987;SDS011;35735;52.226;21.254;2023-07-13T08:39:56;6.05;;;5.53;;
44987;SDS011;35735;52.226;21.254;2023-07-13T08:50:21;5.65;;;5.15;;
44987;SDS011;35735;52.226;21.254;2023-07-13T08:55:29;4.55;;;4.15;;
44987;SDS011;35735;52.226;21.254;2023-07-13T09:00:36;4.95;;;4.45;;
44987;SDS011;35735;52.226;21.254;2023-07-13T09:06:01;5.85;;;4.65;;
44987;SDS011;35735;52.226;21.254;2023-07-13T09:11:07;6.85;;;4.82;;
44987;SDS011;35735;52.226;21.254;2023-07-13T09:16:28;4.95;;;4.55;;
44987;SDS011;35735;52.226;21.254;2023-07-13T09:21:32;6.53;;;4.75;;
44987;SDS011;35735;52.226;21.254;2023-07-13T09:26:38;5.03;;;4.55;;
44987;SDS011;35735;52.226;21.254;2023-07-13T09:31:39;8.32;;;4.95;;
44987;SDS011;35735;52.226;21.254;2023-07-13T09:36:45;4.90;;;4.40;;
44987;SDS011;35735;52.226;21.254;2023-07-13T09:41:54;5.60;;;4.78;;
44987;SDS011;35735;52.226;21.254;2023-07-13T09:47:13;6.10;;;4.90;;
44987;SDS011;35735;52.226;21.254;2023-07-13T09:52:18;8.65;;;3.87;;
44987;SDS011;35735;52.226;21.254;2023-07-13T09:57:19;8.10;;;2.72;;
44987;SDS011;35735;52.226;21.254;2023-07-13T10:02:24;7.65;;;3.53;;
44987;SDS011;35735;52.226;21.254;2023-07-13T10:07:37;4.25;;;2.67;;
44987;SDS011;35735;52.226;21.254;2023-07-13T10:12:44;3.60;;;3.00;;
44987;SDS011;35735;52.226;21.254;2023-07-13T10:17:44;7.45;;;2.80;;
44987;SDS011;35735;52.226;21.254;2023-07-13T10:22:50;2.95;;;2.67;;
44987;SDS011;35735;52.226;21.254;2023-07-13T10:27:55;4.72;;;3.20;;
44987;SDS011;35735;52.226;21.254;2023-07-13T10:33:08;4.15;;;3.75;;
44987;SDS011;35735;52.226;21.254;2023-07-13T10:38:18;4.53;;;2.33;;
44987;SDS011;35735;52.226;21.254;2023-07-13T10:43:25;3.08;;;2.28;;
44987;SDS011;35735;52.226;21.254;2023-07-13T10:48:29;3.83;;;2.42;;
44987;SDS011;35735;52.226;21.254;2023-07-13T10:53:31;2.87;;;2.30;;
44987;SDS011;35735;52.226;21.254;2023-07-13T10:58:36;2.40;;;2.12;;
44987;SDS011;35735;52.226;21.254;2023-07-13T11:04:01;3.55;;;2.25;;
44987;SDS011;35735;52.226;21.254;2023-07-13T11:14:34;5.10;;;2.60;;
44987;SDS011;35735;52.226;21.254;2023-07-13T11:19:38;9.48;;;2.47;;
44987;SDS011;35735;52.226;21.254;2023-07-13T11:24:48;3.37;;;2.35;;
44987;SDS011;35735;52.226;21.254;2023-07-13T11:29:51;3.10;;;2.37;;
44987;SDS011;35735;52.226;21.254;2023-07-13T11:35:12;8.27;;;2.80;;
44987;SDS011;35735;52.226;21.254;2023-07-13T11:40:22;5.50;;;2.70;;
44987;SDS011;35735;52.226;21.254;2023-07-13T11:45:27;5.00;;;3.05;;
44987;SDS011;35735;52.226;21.254;2023-07-13T11:50:28;4.93;;;3.20;;
44987;SDS011;35735;52.226;21.254;2023-07-13T11:55:28;6.78;;;3.37;;
44987;SDS011;35735;52.226;21.254;2023-07-13T12:00:29;4.32;;;2.70;;
44987;SDS011;35735;52.226;21.254;2023-07-13T12:05:32;6.12;;;3.10;;
44987;SDS011;35735;52.226;21.254;2023-07-13T12:10:33;4.60;;;3.42;;
44987;SDS011;35735;52.226;21.254;2023-07-13T12:20:40;7.95;;;3.53;;
44987;SDS011;35735;52.226;21.254;2023-07-13T12:25:41;8.50;;;3.87;;
44987;SDS011;35735;52.226;21.254;2023-07-13T12:30:41;6.30;;;3.83;;
44987;SDS011;35735;52.226;21.254;2023-07-13T12:35:50;6.53;;;3.67;;
44987;SDS011;35735;52.226;21.254;2023-07-13T12:40:52;6.93;;;3.70;;
44987;SDS011;35735;52.226;21.254;2023-07-13T12:45:54;5.28;;;4.47;;
44987;SDS011;35735;52.226;21.254;2023-07-13T12:50:55;5.32;;;4.15;;
44987;SDS011;35735;52.226;21.254;2023-07-13T12:55:57;5.53;;;3.83;;
44987;SDS011;35735;52.226;21.254;2023-07-13T13:01:01;5.75;;;4.12;;
44987;SDS011;35735;52.226;21.254;2023-07-13T13:06:04;6.95;;;4.37;;
44987;SDS011;35735;52.226;21.254;2023-07-13T13:11:06;5.32;;;4.55;;
44987;SDS011;35735;52.226;21.254;2023-07-13T13:16:09;5.97;;;4.43;;
44987;SDS011;35735;52.226;21.254;2023-07-13T13:21:12;8.85;;;5.03;;
44987;SDS011;35735;52.226;21.254;2023-07-13T13:26:14;10.48;;;4.85;;
44987;SDS011;35735;52.226;21.254;2023-07-13T13:31:15;4.78;;;4.20;;
44987;SDS011;35735;52.226;21.254;2023-07-13T13:36:16;7.47;;;5.10;;
44987;SDS011;35735;52.226;21.254;2023-07-13T13:41:20;5.85;;;5.20;;
44987;SDS011;35735;52.226;21.254;2023-07-13T13:46:21;7.45;;;5.30;;
44987;SDS011;35735;52.226;21.254;2023-07-13T13:51:24;7.07;;;5.15;;
44987;SDS011;35735;52.226;21.254;2023-07-13T13:56:25;8.98;;;5.72;;
44987;SDS011;35735;52.226;21.254;2023-07-13T14:01:25;9.48;;;5.80;;
44987;SDS011;35735;52.226;21.254;2023-07-13T14:06:31;9.25;;;6.70;;
44987;SDS011;35735;52.226;21.254;2023-07-13T14:11:32;13.65;;;10.02;;
44987;SDS011;35735;52.226;21.254;2023-07-13T14:16:33;10.02;;;8.95;;
44987;SDS011;35735;52.226;21.254;2023-07-13T14:21:34;10.88;;;8.00;;
44987;SDS011;35735;52.226;21.254;2023-07-13T14:26:38;9.48;;;6.37;;
44987;SDS011;35735;52.226;21.254;2023-07-13T14:31:41;8.50;;;5.87;;
44987;SDS011;35735;52.226;21.254;2023-07-13T14:36:42;9.40;;;5.78;;
44987;SDS011;35735;52.226;21.254;2023-07-13T14:41:45;6.40;;;5.68;;
44987;SDS011;35735;52.226;21.254;2023-07-13T14:46:46;7.07;;;5.55;;
44987;SDS011;35735;52.226;21.254;2023-07-13T14:51:47;5.55;;;4.82;;
44987;SDS011;35735;52.226;21.254;2023-07-13T14:56:48;7.15;;;5.50;;
44987;SDS011;35735;52.226;21.254;2023-07-13T15:01:48;8.98;;;5.57;;
44987;SDS011;35735;52.226;21.254;2023-07-13T15:06:57;9.18;;;6.05;;
44987;SDS011;35735;52.226;21.254;2023-07-13T15:12:00;6.62;;;5.55;;
44987;SDS011;35735;52.226;21.254;2023-07-13T15:17:01;7.32;;;5.97;;
44987;SDS011;35735;52.226;21.254;2023-07-13T15:22:02;8.68;;;6.95;;
44987;SDS011;35735;52.226;21.254;2023-07-13T15:27:04;9.25;;;7.45;;
44987;SDS011;35735;52.226;21.254;2023-07-13T15:32:12;8.02;;;6.40;;
44987;SDS011;35735;52.226;21.254;2023-07-13T15:37:14;8.00;;;6.22;;
44987;SDS011;35735;52.226;21.254;2023-07-13T15:42:16;6.68;;;5.97;;
44987;SDS011;35735;52.226;21.254;2023-07-13T15:47:18;6.18;;;5.57;;
44987;SDS011;35735;52.226;21.254;2023-07-13T15:52:20;7.85;;;6.05;;
44987;SDS011;35735;52.226;21.254;2023-07-13T15:57:23;6.57;;;5.97;;
44987;SDS011;35735;52.226;21.254;2023-07-13T16:02:24;11.25;;;6.90;;
44987;SDS011;35735;52.226;21.254;2023-07-13T16:07:24;6.68;;;6.00;;
44987;SDS011;35735;52.226;21.254;2023-07-13T16:12:25;8.95;;;6.20;;
44987;SDS011;35735;52.226;21.254;2023-07-13T16:17:26;9.57;;;7.20;;
44987;SDS011;35735;52.226;21.254;2023-07-13T16:22:27;7.55;;;6.55;;
44987;SDS011;35735;52.226;21.254;2023-07-13T16:27:27;7.55;;;6.50;;
44987;SDS011;35735;52.226;21.254;2023-07-13T16:32:28;9.52;;;6.72;;
44987;SDS011;35735;52.226;21.254;2023-07-13T16:37:28;12.85;;;7.00;;
44987;SDS011;35735;52.226;21.254;2023-07-13T16:42:29;7.60;;;6.37;;
44987;SDS011;35735;52.226;21.254;2023-07-13T16:47:30;8.07;;;6.35;;
44987;SDS011;35735;52.226;21.254;2023-07-13T16:52:30;6.62;;;6.03;;
44987;SDS011;35735;52.226;21.254;2023-07-13T16:57:31;6.50;;;5.82;;
44987;SDS011;35735;52.226;21.254;2023-07-13T17:02:34;7.78;;;5.78;;
44987;SDS011;35735;52.226;21.254;2023-07-13T17:07:37;5.20;;;4.72;;
44987;SDS011;35735;52.226;21.254;2023-07-13T17:12:37;8.57;;;5.37;;
44987;SDS011;35735;52.226;21.254;2023-07-13T17:17:38;9.35;;;5.40;;
44987;SDS011;35735;52.226;21.254;2023-07-13T17:22:39;6.43;;;5.07;;
44987;SDS011;35735;52.226;21.254;2023-07-13T17:27:40;7.07;;;5.95;;
44987;SDS011;35735;52.226;21.254;2023-07-13T17:32:41;11.98;;;6.32;;
44987;SDS011;35735;52.226;21.254;2023-07-13T17:37:43;8.80;;;5.93;;
44987;SDS011;35735;52.226;21.254;2023-07-13T17:42:44;7.18;;;6.05;;
44987;SDS011;35735;52.226;21.254;2023-07-13T17:47:46;6.95;;;6.05;;
44987;SDS011;35735;52.226;21.254;2023-07-13T17:52:47;7.35;;;5.95;;
44987;SDS011;35735;52.226;21.254;2023-07-13T17:57:48;10.00;;;6.50;;
44987;SDS011;35735;52.226;21.254;2023-07-13T18:02:49;6.75;;;6.00;;
44987;SDS011;35735;52.226;21.254;2023-07-13T18:07:53;7.87;;;6.12;;
44987;SDS011;35735;52.226;21.254;2023-07-13T18:12:54;8.82;;;6.22;;
44987;SDS011;35735;52.226;21.254;2023-07-13T18:17:55;9.40;;;6.95;;
44987;SDS011;35735;52.226;21.254;2023-07-13T18:22:58;8.98;;;6.22;;
44987;SDS011;35735;52.226;21.254;2023-07-13T18:27:59;11.68;;;6.80;;
44987;SDS011;35735;52.226;21.254;2023-07-13T18:32:59;9.02;;;6.40;;
44987;SDS011;35735;52.226;21.254;2023-07-13T18:38:00;7.32;;;6.30;;
44987;SDS011;35735;52.226;21.254;2023-07-13T18:43:02;9.45;;;6.50;;
44987;SDS011;35735;52.226;21.254;2023-07-13T18:48:03;8.05;;;6.62;;
44987;SDS011;35735;52.226;21.254;2023-07-13T18:53:04;9.10;;;7.20;;
44987;SDS011;35735;52.226;21.254;2023-07-13T18:58:04;9.63;;;7.57;;
44987;SDS011;35735;52.226;21.254;2023-07-13T19:03:18;11.95;;;7.15;;
44987;SDS011;35735;52.226;21.254;2023-07-13T19:08:21;9.50;;;6.82;;
44987;SDS011;35735;52.226;21.254;2023-07-13T19:13:24;9.07;;;7.65;;
44987;SDS011;35735;52.226;21.254;2023-07-13T19:18:28;8.13;;;7.10;;
44987;SDS011;35735;52.226;21.254;2023-07-13T19:23:30;10.18;;;7.03;;
44987;SDS011;35735;52.226;21.254;2023-07-13T19:28:38;9.13;;;7.43;;
44987;SDS011;35735;52.226;21.254;2023-07-13T19:33:41;7.95;;;6.82;;
44987;SDS011;35735;52.226;21.254;2023-07-13T19:38:42;7.70;;;6.20;;
44987;SDS011;35735;52.226;21.254;2023-07-13T19:43:43;7.53;;;6.70;;
44987;SDS011;35735;52.226;21.254;2023-07-13T19:48:45;11.95;;;7.22;;
44987;SDS011;35735;52.226;21.254;2023-07-13T19:53:49;12.05;;;7.28;;
44987;SDS011;35735;52.226;21.254;2023-07-13T19:58:52;8.55;;;6.68;;
44987;SDS011;35735;52.226;21.254;2023-07-13T20:03:53;9.98;;;6.68;;
44987;SDS011;35735;52.226;21.254;2023-07-13T20:08:54;11.38;;;7.43;;
44987;SDS011;35735;52.226;21.254;2023-07-13T20:13:58;7.60;;;6.78;;
44987;SDS011;35735;52.226;21.254;2023-07-13T20:18:58;10.77;;;6.82;;
44987;SDS011;35735;52.226;21.254;2023-07-13T20:23:59;8.88;;;7.00;;
44987;SDS011;35735;52.226;21.254;2023-07-13T20:29:00;12.30;;;6.80;;
44987;SDS011;35735;52.226;21.254;2023-07-13T20:34:00;13.38;;;6.82;;
44987;SDS011;35735;52.226;21.254;2023-07-13T20:39:07;8.13;;;6.90;;
44987;SDS011;35735;52.226;21.254;2023-07-13T20:44:10;9.60;;;7.00;;
44987;SDS011;35735;52.226;21.254;2023-07-13T20:49:11;7.55;;;6.82;;
44987;SDS011;35735;52.226;21.254;2023-07-13T20:54:15;7.90;;;7.10;;
44987;SDS011;35735;52.226;21.254;2023-07-13T20:59:15;12.68;;;9.02;;
44987;SDS011;35735;52.226;21.254;2023-07-13T21:04:16;15.93;;;10.05;;
44987;SDS011;35735;52.226;21.254;2023-07-13T21:09:17;10.73;;;9.07;;
44987;SDS011;35735;52.226;21.254;2023-07-13T21:14:19;10.57;;;8.65;;
44987;SDS011;35735;52.226;21.254;2023-07-13T21:19:20;11.93;;;7.97;;
44987;SDS011;35735;52.226;21.254;2023-07-13T21:24:20;9.70;;;8.68;;
44987;SDS011;35735;52.226;21.254;2023-07-13T21:29:21;13.27;;;8.98;;
44987;SDS011;35735;52.226;21.254;2023-07-13T21:34:21;10.38;;;8.32;;
44987;SDS011;35735;52.226;21.254;2023-07-13T21:39:22;12.52;;;8.20;;
44987;SDS011;35735;52.226;21.254;2023-07-13T21:44:24;9.95;;;8.45;;
44987;SDS011;35735;52.226;21.254;2023-07-13T21:49:27;8.38;;;7.40;;
44987;SDS011;35735;52.226;21.254;2023-07-13T21:54:28;13.82;;;8.10;;
44987;SDS011;35735;52.226;21.254;2023-07-13T21:59:29;9.00;;;7.80;;
44987;SDS011;35735;52.226;21.254;2023-07-13T22:04:29;8.90;;;7.95;;
44987;SDS011;35735;52.226;21.254;2023-07-13T22:09:30;8.05;;;7.18;;
44987;SDS011;35735;52.226;21.254;2023-07-13T22:14:30;7.30;;;6.60;;
44987;SDS011;35735;52.226;21.254;2023-07-13T22:19:31;8.93;;;7.45;;
44987;SDS011;35735;52.226;21.254;2023-07-13T22:24:32;8.30;;;7.50;;
44987;SDS011;35735;52.226;21.254;2023-07-13T22:29:32;10.40;;;7.95;;
44987;SDS011;35735;52.226;21.254;2023-07-13T22:34:33;9.90;;;8.43;;
44987;SDS011;35735;52.226;21.254;2023-07-13T22:39:33;12.75;;;7.68;;
44987;SDS011;35735;52.226;21.254;2023-07-13T22:44:34;11.45;;;7.80;;
44987;SDS011;35735;52.226;21.254;2023-07-13T22:49:35;7.85;;;6.97;;
44987;SDS011;35735;52.226;21.254;2023-07-13T22:54:35;9.50;;;7.90;;
44987;SDS011;35735;52.226;21.254;2023-07-13T22:59:36;9.75;;;7.32;;
44987;SDS011;35735;52.226;21.254;2023-07-13T23:04:36;8.70;;;7.57;;
44987;SDS011;35735;52.226;21.254;2023-07-13T23:09:37;12.68;;;8.30;;
44987;SDS011;35735;52.226;21.254;2023-07-13T23:14:38;10.38;;;7.82;;
44987;SDS011;35735;52.226;21.254;2023-07-13T23:19:38;11.07;;;8.20;;
44987;SDS011;35735;52.226;21.254;2023-07-13T23:24:39;8.27;;;7.50;;
44987;SDS011;35735;52.226;21.254;2023-07-13T23:29:39;8.38;;;6.80;;
44987;SDS011;35735;52.226;21.254;2023-07-13T23:34:40;7.35;;;6.28;;
44987;SDS011;35735;52.226;21.254;2023-07-13T23:39:40;8.35;;;7.45;;
44987;SDS011;35735;52.226;21.254;2023-07-13T23:44:41;7.32;;;6.62;;
44987;SDS011;35735;52.226;21.254;2023-07-13T23:49:41;11.10;;;7.55;;
44987;SDS011;35735;52.226;21.254;2023-07-13T23:54:42;9.70;;;7.05;;
44987;SDS011;35735;52.226;21.254;2023-07-13T23:59:42;8.68;;;7.05;;
